首页
METAR-TAF:

METAR-TAF

机场 :

Lydd, 英格兰

纬度: 50-57N, 经度: 000-56E, 海拔: 3米

当前天气观测

该预报发布于12分钟前的06:20 UTC
风速5节,风向西北
温度 -1°C
湿度 100%
气压 1017 hPa
能見度: 9000

METAR: EGMD 190620Z AUTO 32005KT 9000 NCD M01/M01 Q1017

时间: 06:32 (06:32 UTC)

预报

该预报发布于1小时和34分钟前的04:58 UTC
预报有效从19日的 06点(UTC)到 19日的 15点(UTC)
风速5节,风向西转西北
能见度10公里或以上
少量云层高于3000英尺
短暂存在
从 19日的 06点(UTC)到 19日的 10点(UTC)
能見度: 8000
几率 30%
从 19日的 06点(UTC)到 19日的 09点(UTC)
能見度: 3000
轻雾

TAF: EGMD 190458Z 1906/1915 30005KT 9999 FEW030 TEMPO 1906/1910 8000 PROB30 1906/1909 3000 BR

超过4000个机场的气象观测和天气预报(METAR&TAF报告)。

可查询的气象台以黄色和红色小点在地图上表示。

将鼠标移到小点上方,可查看气象台名称。

然后点击查看天气观测和预报。

如需切换地图:点击带黑十字的绿色按钮放大地图;点击带横线的绿色按钮缩小地图;或者点击绿色箭头查看邻近地区的地图。


METAR-TAF: